sensor_id;sensor_type;location;lat;lon;timestamp;P1;durP1;ratioP1;P2;durP2;ratioP2
29954;SDS011;68448;51.188;6.868;2023-03-26T00:01:36;23.17;;;5.57;;
29954;SDS011;68448;51.188;6.868;2023-03-26T00:04:04;24.60;;;5.10;;
29954;SDS011;68448;51.188;6.868;2023-03-26T00:06:32;26.53;;;5.40;;
29954;SDS011;68448;51.188;6.868;2023-03-26T00:09:01;21.70;;;5.67;;
29954;SDS011;68448;51.188;6.868;2023-03-26T00:11:29;21.30;;;5.47;;
29954;SDS011;68448;51.188;6.868;2023-03-26T00:13:56;20.03;;;5.60;;
29954;SDS011;68448;51.188;6.868;2023-03-26T00:16:24;32.83;;;4.77;;
29954;SDS011;68448;51.188;6.868;2023-03-26T00:18:51;27.83;;;6.40;;
29954;SDS011;68448;51.188;6.868;2023-03-26T00:21:19;15.40;;;5.23;;
29954;SDS011;68448;51.188;6.868;2023-03-26T00:23:47;28.77;;;6.20;;
29954;SDS011;68448;51.188;6.868;2023-03-26T00:26:15;29.93;;;4.50;;
29954;SDS011;68448;51.188;6.868;2023-03-26T00:28:42;20.50;;;4.67;;
29954;SDS011;68448;51.188;6.868;2023-03-26T00:31:10;28.67;;;6.50;;
29954;SDS011;68448;51.188;6.868;2023-03-26T00:33:38;18.10;;;5.73;;
29954;SDS011;68448;51.188;6.868;2023-03-26T00:36:06;23.63;;;5.97;;
29954;SDS011;68448;51.188;6.868;2023-03-26T00:38:34;26.83;;;5.77;;
29954;SDS011;68448;51.188;6.868;2023-03-26T00:41:01;24.40;;;6.30;;
29954;SDS011;68448;51.188;6.868;2023-03-26T00:43:30;16.40;;;5.20;;
29954;SDS011;68448;51.188;6.868;2023-03-26T00:45:57;28.67;;;5.30;;
29954;SDS011;68448;51.188;6.868;2023-03-26T00:48:24;14.87;;;4.30;;
29954;SDS011;68448;51.188;6.868;2023-03-26T00:51:09;22.97;;;5.97;;
29954;SDS011;68448;51.188;6.868;2023-03-26T00:53:37;22.33;;;4.57;;
29954;SDS011;68448;51.188;6.868;2023-03-26T00:56:05;14.87;;;4.27;;
29954;SDS011;68448;51.188;6.868;2023-03-26T00:58:33;26.60;;;5.80;;
29954;SDS011;68448;51.188;6.868;2023-03-26T01:01:01;24.83;;;4.90;;
29954;SDS011;68448;51.188;6.868;2023-03-26T01:03:30;15.40;;;4.70;;
29954;SDS011;68448;51.188;6.868;2023-03-26T01:05:58;21.47;;;4.93;;
29954;SDS011;68448;51.188;6.868;2023-03-26T01:08:27;19.03;;;5.20;;
29954;SDS011;68448;51.188;6.868;2023-03-26T01:10:56;32.97;;;5.80;;
29954;SDS011;68448;51.188;6.868;2023-03-26T01:13:24;29.50;;;5.00;;
29954;SDS011;68448;51.188;6.868;2023-03-26T01:15:52;19.67;;;4.23;;
29954;SDS011;68448;51.188;6.868;2023-03-26T01:18:21;16.90;;;6.30;;
29954;SDS011;68448;51.188;6.868;2023-03-26T01:20:48;20.47;;;5.50;;
29954;SDS011;68448;51.188;6.868;2023-03-26T01:23:16;36.07;;;5.17;;
29954;SDS011;68448;51.188;6.868;2023-03-26T01:25:48;20.67;;;5.00;;
29954;SDS011;68448;51.188;6.868;2023-03-26T01:28:16;17.23;;;5.27;;
29954;SDS011;68448;51.188;6.868;2023-03-26T01:30:45;21.20;;;5.67;;
29954;SDS011;68448;51.188;6.868;2023-03-26T01:33:16;20.70;;;4.93;;
29954;SDS011;68448;51.188;6.868;2023-03-26T01:35:48;26.60;;;6.00;;
29954;SDS011;68448;51.188;6.868;2023-03-26T01:38:21;25.40;;;5.20;;
29954;SDS011;68448;51.188;6.868;2023-03-26T01:40:52;27.93;;;6.27;;
29954;SDS011;68448;51.188;6.868;2023-03-26T01:43:23;17.10;;;5.17;;
29954;SDS011;68448;51.188;6.868;2023-03-26T01:45:53;21.07;;;5.10;;
29954;SDS011;68448;51.188;6.868;2023-03-26T01:48:24;19.20;;;5.80;;
29954;SDS011;68448;51.188;6.868;2023-03-26T01:50:53;20.67;;;4.93;;
29954;SDS011;68448;51.188;6.868;2023-03-26T01:53:20;18.40;;;5.43;;
29954;SDS011;68448;51.188;6.868;2023-03-26T01:55:53;19.37;;;5.10;;
29954;SDS011;68448;51.188;6.868;2023-03-26T01:58:23;28.57;;;5.27;;
29954;SDS011;68448;51.188;6.868;2023-03-26T02:00:54;25.57;;;5.70;;
29954;SDS011;68448;51.188;6.868;2023-03-26T02:03:25;15.83;;;5.20;;
29954;SDS011;68448;51.188;6.868;2023-03-26T02:05:54;17.20;;;4.53;;
29954;SDS011;68448;51.188;6.868;2023-03-26T02:08:24;18.97;;;4.03;;
29954;SDS011;68448;51.188;6.868;2023-03-26T02:10:54;28.30;;;5.20;;
29954;SDS011;68448;51.188;6.868;2023-03-26T02:13:23;23.43;;;6.20;;
29954;SDS011;68448;51.188;6.868;2023-03-26T02:15:54;18.20;;;5.10;;
29954;SDS011;68448;51.188;6.868;2023-03-26T02:18:22;17.77;;;4.83;;
29954;SDS011;68448;51.188;6.868;2023-03-26T02:20:49;33.97;;;5.07;;
29954;SDS011;68448;51.188;6.868;2023-03-26T02:23:17;21.00;;;5.97;;
29954;SDS011;68448;51.188;6.868;2023-03-26T02:25:45;26.73;;;5.57;;
29954;SDS011;68448;51.188;6.868;2023-03-26T02:28:13;20.93;;;5.17;;
29954;SDS011;68448;51.188;6.868;2023-03-26T02:30:40;20.43;;;5.20;;
29954;SDS011;68448;51.188;6.868;2023-03-26T02:33:08;19.27;;;5.27;;
29954;SDS011;68448;51.188;6.868;2023-03-26T02:35:40;24.23;;;6.20;;
29954;SDS011;68448;51.188;6.868;2023-03-26T02:38:07;20.73;;;4.47;;
29954;SDS011;68448;51.188;6.868;2023-03-26T02:40:34;17.43;;;4.23;;
29954;SDS011;68448;51.188;6.868;2023-03-26T02:43:02;27.07;;;6.03;;
29954;SDS011;68448;51.188;6.868;2023-03-26T02:45:32;23.63;;;6.53;;
29954;SDS011;68448;51.188;6.868;2023-03-26T02:48:19;20.13;;;5.77;;
29954;SDS011;68448;51.188;6.868;2023-03-26T02:51:00;21.50;;;5.30;;
29954;SDS011;68448;51.188;6.868;2023-03-26T02:53:46;19.63;;;4.47;;
29954;SDS011;68448;51.188;6.868;2023-03-26T02:56:27;32.90;;;6.50;;
29954;SDS011;68448;51.188;6.868;2023-03-26T02:59:07;19.87;;;4.43;;
29954;SDS011;68448;51.188;6.868;2023-03-26T03:01:36;15.77;;;4.50;;
29954;SDS011;68448;51.188;6.868;2023-03-26T03:04:03;13.60;;;4.27;;
29954;SDS011;68448;51.188;6.868;2023-03-26T03:06:33;17.53;;;5.17;;
29954;SDS011;68448;51.188;6.868;2023-03-26T03:09:01;18.77;;;4.80;;
29954;SDS011;68448;51.188;6.868;2023-03-26T03:11:33;23.63;;;4.27;;
29954;SDS011;68448;51.188;6.868;2023-03-26T03:14:01;23.60;;;5.10;;
29954;SDS011;68448;51.188;6.868;2023-03-26T03:16:29;36.70;;;5.70;;
29954;SDS011;68448;51.188;6.868;2023-03-26T03:19:06;22.30;;;5.50;;
29954;SDS011;68448;51.188;6.868;2023-03-26T03:21:37;18.30;;;4.93;;
29954;SDS011;68448;51.188;6.868;2023-03-26T03:24:06;17.73;;;4.13;;
29954;SDS011;68448;51.188;6.868;2023-03-26T03:26:37;12.47;;;4.27;;
29954;SDS011;68448;51.188;6.868;2023-03-26T03:29:19;21.80;;;5.20;;
29954;SDS011;68448;51.188;6.868;2023-03-26T03:31:47;19.10;;;5.23;;
29954;SDS011;68448;51.188;6.868;2023-03-26T03:34:36;18.40;;;3.87;;
29954;SDS011;68448;51.188;6.868;2023-03-26T03:37:03;21.80;;;5.97;;
29954;SDS011;68448;51.188;6.868;2023-03-26T03:39:39;18.10;;;5.40;;
29954;SDS011;68448;51.188;6.868;2023-03-26T03:42:07;16.90;;;4.20;;
29954;SDS011;68448;51.188;6.868;2023-03-26T03:44:35;24.53;;;5.47;;
29954;SDS011;68448;51.188;6.868;2023-03-26T03:47:08;28.43;;;5.30;;
29954;SDS011;68448;51.188;6.868;2023-03-26T03:49:37;18.90;;;5.70;;
29954;SDS011;68448;51.188;6.868;2023-03-26T03:52:04;19.87;;;5.13;;
29954;SDS011;68448;51.188;6.868;2023-03-26T03:54:37;23.30;;;4.57;;
29954;SDS011;68448;51.188;6.868;2023-03-26T03:57:17;22.50;;;4.70;;
29954;SDS011;68448;51.188;6.868;2023-03-26T03:59:56;21.53;;;5.20;;
29954;SDS011;68448;51.188;6.868;2023-03-26T04:02:26;13.90;;;4.97;;
29954;SDS011;68448;51.188;6.868;2023-03-26T04:04:58;9.30;;;4.27;;
29954;SDS011;68448;51.188;6.868;2023-03-26T04:07:27;22.00;;;4.90;;
29954;SDS011;68448;51.188;6.868;2023-03-26T04:10:05;14.37;;;4.93;;
29954;SDS011;68448;51.188;6.868;2023-03-26T04:13:01;24.90;;;4.37;;
29954;SDS011;68448;51.188;6.868;2023-03-26T04:15:53;23.87;;;5.10;;
29954;SDS011;68448;51.188;6.868;2023-03-26T04:18:21;18.90;;;4.40;;
29954;SDS011;68448;51.188;6.868;2023-03-26T04:20:50;16.43;;;4.20;;
29954;SDS011;68448;51.188;6.868;2023-03-26T04:23:22;21.40;;;4.03;;
29954;SDS011;68448;51.188;6.868;2023-03-26T04:25:55;21.87;;;4.23;;
29954;SDS011;68448;51.188;6.868;2023-03-26T04:28:40;24.83;;;4.77;;
29954;SDS011;68448;51.188;6.868;2023-03-26T04:31:19;18.37;;;5.20;;
29954;SDS011;68448;51.188;6.868;2023-03-26T04:33:48;24.87;;;4.83;;
29954;SDS011;68448;51.188;6.868;2023-03-26T04:36:24;18.00;;;4.13;;
29954;SDS011;68448;51.188;6.868;2023-03-26T04:38:52;26.83;;;4.63;;
29954;SDS011;68448;51.188;6.868;2023-03-26T04:41:26;22.60;;;5.20;;
29954;SDS011;68448;51.188;6.868;2023-03-26T04:43:59;24.03;;;4.40;;
29954;SDS011;68448;51.188;6.868;2023-03-26T04:46:46;19.87;;;5.83;;
29954;SDS011;68448;51.188;6.868;2023-03-26T04:49:31;14.80;;;4.80;;
29954;SDS011;68448;51.188;6.868;2023-03-26T04:52:00;10.60;;;4.40;;
29954;SDS011;68448;51.188;6.868;2023-03-26T04:54:48;26.50;;;4.67;;
29954;SDS011;68448;51.188;6.868;2023-03-26T04:57:18;25.03;;;6.30;;
29954;SDS011;68448;51.188;6.868;2023-03-26T04:59:51;16.10;;;4.70;;
29954;SDS011;68448;51.188;6.868;2023-03-26T05:02:19;25.73;;;5.67;;
29954;SDS011;68448;51.188;6.868;2023-03-26T05:04:49;20.30;;;4.20;;
29954;SDS011;68448;51.188;6.868;2023-03-26T05:07:20;20.13;;;5.07;;
29954;SDS011;68448;51.188;6.868;2023-03-26T05:09:51;15.37;;;4.70;;
29954;SDS011;68448;51.188;6.868;2023-03-26T05:12:29;18.23;;;4.10;;
29954;SDS011;68448;51.188;6.868;2023-03-26T05:15:07;17.70;;;4.40;;
29954;SDS011;68448;51.188;6.868;2023-03-26T05:17:44;18.37;;;4.23;;
29954;SDS011;68448;51.188;6.868;2023-03-26T05:20:27;15.73;;;5.03;;
29954;SDS011;68448;51.188;6.868;2023-03-26T05:22:56;12.03;;;3.67;;
29954;SDS011;68448;51.188;6.868;2023-03-26T05:25:26;22.77;;;4.63;;
29954;SDS011;68448;51.188;6.868;2023-03-26T05:27:55;22.27;;;5.17;;
29954;SDS011;68448;51.188;6.868;2023-03-26T05:30:26;26.30;;;5.10;;
29954;SDS011;68448;51.188;6.868;2023-03-26T05:32:57;17.97;;;4.53;;
29954;SDS011;68448;51.188;6.868;2023-03-26T05:35:29;18.20;;;4.70;;
29954;SDS011;68448;51.188;6.868;2023-03-26T05:37:58;15.90;;;4.20;;
29954;SDS011;68448;51.188;6.868;2023-03-26T05:40:25;26.03;;;5.23;;
29954;SDS011;68448;51.188;6.868;2023-03-26T05:42:55;19.83;;;4.00;;
29954;SDS011;68448;51.188;6.868;2023-03-26T05:45:43;25.93;;;4.70;;
29954;SDS011;68448;51.188;6.868;2023-03-26T05:48:20;17.90;;;4.80;;
29954;SDS011;68448;51.188;6.868;2023-03-26T05:50:48;16.03;;;4.73;;
29954;SDS011;68448;51.188;6.868;2023-03-26T05:53:17;17.53;;;4.20;;
29954;SDS011;68448;51.188;6.868;2023-03-26T05:56:03;13.50;;;5.00;;
29954;SDS011;68448;51.188;6.868;2023-03-26T05:58:49;12.53;;;4.00;;
29954;SDS011;68448;51.188;6.868;2023-03-26T06:01:49;18.20;;;5.80;;
29954;SDS011;68448;51.188;6.868;2023-03-26T06:04:46;16.67;;;4.60;;
29954;SDS011;68448;51.188;6.868;2023-03-26T06:07:47;20.83;;;5.30;;
29954;SDS011;68448;51.188;6.868;2023-03-26T06:10:18;14.63;;;4.13;;
29954;SDS011;68448;51.188;6.868;2023-03-26T06:12:46;23.93;;;6.33;;
29954;SDS011;68448;51.188;6.868;2023-03-26T06:15:13;20.97;;;5.57;;
29954;SDS011;68448;51.188;6.868;2023-03-26T06:18:06;20.73;;;4.10;;
29954;SDS011;68448;51.188;6.868;2023-03-26T06:20:42;24.07;;;5.17;;
29954;SDS011;68448;51.188;6.868;2023-03-26T06:23:20;19.90;;;4.23;;
29954;SDS011;68448;51.188;6.868;2023-03-26T06:26:11;15.07;;;4.50;;
29954;SDS011;68448;51.188;6.868;2023-03-26T06:28:58;19.00;;;4.70;;
29954;SDS011;68448;51.188;6.868;2023-03-26T06:31:51;15.20;;;4.40;;
29954;SDS011;68448;51.188;6.868;2023-03-26T06:34:24;17.70;;;4.60;;
29954;SDS011;68448;51.188;6.868;2023-03-26T06:36:52;14.43;;;4.97;;
29954;SDS011;68448;51.188;6.868;2023-03-26T06:39:20;17.97;;;5.23;;
29954;SDS011;68448;51.188;6.868;2023-03-26T06:41:58;13.10;;;4.73;;
29954;SDS011;68448;51.188;6.868;2023-03-26T06:44:44;15.17;;;4.83;;
29954;SDS011;68448;51.188;6.868;2023-03-26T06:47:43;16.30;;;5.20;;
29954;SDS011;68448;51.188;6.868;2023-03-26T06:50:35;10.03;;;4.60;;
29954;SDS011;68448;51.188;6.868;2023-03-26T06:53:11;16.53;;;4.80;;
29954;SDS011;68448;51.188;6.868;2023-03-26T06:55:59;19.33;;;4.80;;
29954;SDS011;68448;51.188;6.868;2023-03-26T06:58:43;21.43;;;5.50;;
29954;SDS011;68448;51.188;6.868;2023-03-26T07:01:36;21.07;;;4.90;;
29954;SDS011;68448;51.188;6.868;2023-03-26T07:04:22;23.83;;;5.60;;
29954;SDS011;68448;51.188;6.868;2023-03-26T07:07:07;13.87;;;5.20;;
29954;SDS011;68448;51.188;6.868;2023-03-26T07:09:58;14.80;;;4.83;;
29954;SDS011;68448;51.188;6.868;2023-03-26T07:12:25;16.03;;;4.63;;
29954;SDS011;68448;51.188;6.868;2023-03-26T07:15:19;20.80;;;5.70;;
29954;SDS011;68448;51.188;6.868;2023-03-26T07:18:04;19.67;;;4.80;;
29954;SDS011;68448;51.188;6.868;2023-03-26T07:20:34;14.60;;;5.03;;
29954;SDS011;68448;51.188;6.868;2023-03-26T07:23:02;22.87;;;4.83;;
29954;SDS011;68448;51.188;6.868;2023-03-26T07:25:52;14.70;;;4.87;;
29954;SDS011;68448;51.188;6.868;2023-03-26T07:28:38;14.93;;;4.20;;
29954;SDS011;68448;51.188;6.868;2023-03-26T07:31:57;17.00;;;4.43;;
29954;SDS011;68448;51.188;6.868;2023-03-26T07:34:48;14.73;;;4.40;;
29954;SDS011;68448;51.188;6.868;2023-03-26T07:37:38;10.03;;;3.97;;
29954;SDS011;68448;51.188;6.868;2023-03-26T07:40:14;14.40;;;4.60;;
29954;SDS011;68448;51.188;6.868;2023-03-26T07:42:54;25.47;;;4.83;;
29954;SDS011;68448;51.188;6.868;2023-03-26T07:45:44;19.47;;;4.60;;
29954;SDS011;68448;51.188;6.868;2023-03-26T07:48:35;11.50;;;4.67;;
29954;SDS011;68448;51.188;6.868;2023-03-26T07:51:31;18.10;;;5.50;;
29954;SDS011;68448;51.188;6.868;2023-03-26T07:54:08;13.33;;;3.80;;
29954;SDS011;68448;51.188;6.868;2023-03-26T07:56:45;19.00;;;4.83;;
29954;SDS011;68448;51.188;6.868;2023-03-26T07:59:33;10.17;;;3.60;;
29954;SDS011;68448;51.188;6.868;2023-03-26T08:05:28;15.27;;;4.90;;
29954;SDS011;68448;51.188;6.868;2023-03-26T08:08:15;9.70;;;3.57;;
29954;SDS011;68448;51.188;6.868;2023-03-26T08:11:13;9.87;;;4.70;;
29954;SDS011;68448;51.188;6.868;2023-03-26T08:13:55;16.57;;;4.57;;
29954;SDS011;68448;51.188;6.868;2023-03-26T08:16:26;15.47;;;4.70;;
29954;SDS011;68448;51.188;6.868;2023-03-26T08:18:55;10.13;;;4.03;;
29954;SDS011;68448;51.188;6.868;2023-03-26T08:21:28;14.37;;;4.57;;
29954;SDS011;68448;51.188;6.868;2023-03-26T08:23:57;12.10;;;3.53;;
29954;SDS011;68448;51.188;6.868;2023-03-26T08:26:28;13.40;;;4.67;;
29954;SDS011;68448;51.188;6.868;2023-03-26T08:29:00;16.00;;;5.07;;
29954;SDS011;68448;51.188;6.868;2023-03-26T08:31:31;19.37;;;4.80;;
29954;SDS011;68448;51.188;6.868;2023-03-26T08:33:58;18.93;;;5.33;;
29954;SDS011;68448;51.188;6.868;2023-03-26T08:36:25;12.20;;;4.60;;
29954;SDS011;68448;51.188;6.868;2023-03-26T08:38:54;12.80;;;4.10;;
29954;SDS011;68448;51.188;6.868;2023-03-26T08:41:27;13.97;;;3.63;;
29954;SDS011;68448;51.188;6.868;2023-03-26T08:46:56;17.60;;;3.87;;
29954;SDS011;68448;51.188;6.868;2023-03-26T08:49:36;14.30;;;5.13;;
29954;SDS011;68448;51.188;6.868;2023-03-26T08:52:14;12.03;;;4.10;;
29954;SDS011;68448;51.188;6.868;2023-03-26T08:54:59;14.63;;;3.83;;
29954;SDS011;68448;51.188;6.868;2023-03-26T09:00:21;21.27;;;4.00;;
29954;SDS011;68448;51.188;6.868;2023-03-26T09:03:02;13.53;;;3.63;;
29954;SDS011;68448;51.188;6.868;2023-03-26T09:05:42;9.90;;;4.20;;
29954;SDS011;68448;51.188;6.868;2023-03-26T09:08:22;17.17;;;4.43;;
29954;SDS011;68448;51.188;6.868;2023-03-26T09:13:56;18.60;;;3.93;;
29954;SDS011;68448;51.188;6.868;2023-03-26T09:28:02;8.80;;;4.73;;
29954;SDS011;68448;51.188;6.868;2023-03-26T09:30:46;8.67;;;3.90;;
29954;SDS011;68448;51.188;6.868;2023-03-26T09:33:23;11.93;;;3.73;;
29954;SDS011;68448;51.188;6.868;2023-03-26T09:35:54;7.50;;;3.40;;
29954;SDS011;68448;51.188;6.868;2023-03-26T09:38:40;7.47;;;3.33;;
29954;SDS011;68448;51.188;6.868;2023-03-26T09:41:13;11.23;;;3.40;;
29954;SDS011;68448;51.188;6.868;2023-03-26T09:43:57;18.57;;;3.47;;
29954;SDS011;68448;51.188;6.868;2023-03-26T09:46:34;8.30;;;2.37;;
29954;SDS011;68448;51.188;6.868;2023-03-26T09:49:05;3.60;;;2.27;;
29954;SDS011;68448;51.188;6.868;2023-03-26T09:51:38;6.90;;;2.17;;
29954;SDS011;68448;51.188;6.868;2023-03-26T09:54:13;4.83;;;2.23;;
29954;SDS011;68448;51.188;6.868;2023-03-26T09:56:47;5.97;;;2.43;;
29954;SDS011;68448;51.188;6.868;2023-03-26T09:59:20;11.67;;;2.40;;
29954;SDS011;68448;51.188;6.868;2023-03-26T10:01:55;3.90;;;2.20;;
29954;SDS011;68448;51.188;6.868;2023-03-26T10:07:07;7.80;;;2.70;;
29954;SDS011;68448;51.188;6.868;2023-03-26T10:09:44;5.20;;;2.33;;
29954;SDS011;68448;51.188;6.868;2023-03-26T10:12:18;4.40;;;1.90;;
29954;SDS011;68448;51.188;6.868;2023-03-26T10:14:48;3.47;;;1.70;;
29954;SDS011;68448;51.188;6.868;2023-03-26T10:17:26;4.73;;;1.77;;
29954;SDS011;68448;51.188;6.868;2023-03-26T10:20:00;3.13;;;1.70;;
29954;SDS011;68448;51.188;6.868;2023-03-26T10:22:33;4.60;;;2.00;;
29954;SDS011;68448;51.188;6.868;2023-03-26T10:25:09;4.30;;;1.50;;
29954;SDS011;68448;51.188;6.868;2023-03-26T10:27:42;3.50;;;1.87;;
29954;SDS011;68448;51.188;6.868;2023-03-26T10:30:19;4.60;;;2.60;;
29954;SDS011;68448;51.188;6.868;2023-03-26T10:32:52;6.40;;;1.70;;
29954;SDS011;68448;51.188;6.868;2023-03-26T10:35:25;6.27;;;1.90;;
29954;SDS011;68448;51.188;6.868;2023-03-26T10:38:00;7.23;;;2.00;;
29954;SDS011;68448;51.188;6.868;2023-03-26T10:40:29;4.63;;;2.43;;
29954;SDS011;68448;51.188;6.868;2023-03-26T10:43:01;5.13;;;1.70;;
29954;SDS011;68448;51.188;6.868;2023-03-26T10:45:35;5.93;;;2.13;;
29954;SDS011;68448;51.188;6.868;2023-03-26T10:48:12;6.00;;;1.50;;
29954;SDS011;68448;51.188;6.868;2023-03-26T10:50:48;4.10;;;2.20;;
29954;SDS011;68448;51.188;6.868;2023-03-26T10:53:21;2.30;;;1.83;;
29954;SDS011;68448;51.188;6.868;2023-03-26T10:55:50;6.37;;;1.77;;
29954;SDS011;68448;51.188;6.868;2023-03-26T10:58:20;2.83;;;1.70;;
29954;SDS011;68448;51.188;6.868;2023-03-26T11:00:49;2.80;;;1.57;;
29954;SDS011;68448;51.188;6.868;2023-03-26T11:06:05;2.83;;;1.50;;
29954;SDS011;68448;51.188;6.868;2023-03-26T11:08:35;1.90;;;1.57;;
29954;SDS011;68448;51.188;6.868;2023-03-26T11:11:09;4.30;;;1.57;;
29954;SDS011;68448;51.188;6.868;2023-03-26T11:13:43;1.87;;;1.70;;
29954;SDS011;68448;51.188;6.868;2023-03-26T11:16:13;3.90;;;1.90;;
29954;SDS011;68448;51.188;6.868;2023-03-26T11:18:45;2.90;;;1.60;;
29954;SDS011;68448;51.188;6.868;2023-03-26T11:21:16;2.50;;;1.67;;
29954;SDS011;68448;51.188;6.868;2023-03-26T11:23:48;3.97;;;1.50;;
29954;SDS011;68448;51.188;6.868;2023-03-26T11:26:33;5.67;;;2.53;;
29954;SDS011;68448;51.188;6.868;2023-03-26T11:29:07;3.47;;;1.60;;
29954;SDS011;68448;51.188;6.868;2023-03-26T11:31:59;4.50;;;1.60;;
29954;SDS011;68448;51.188;6.868;2023-03-26T11:34:29;3.60;;;2.10;;
29954;SDS011;68448;51.188;6.868;2023-03-26T11:37:01;2.40;;;1.67;;
29954;SDS011;68448;51.188;6.868;2023-03-26T11:39:32;2.40;;;1.40;;
29954;SDS011;68448;51.188;6.868;2023-03-26T11:42:04;3.20;;;1.60;;
29954;SDS011;68448;51.188;6.868;2023-03-26T11:44:40;7.97;;;3.90;;
29954;SDS011;68448;51.188;6.868;2023-03-26T11:47:09;5.53;;;2.07;;
29954;SDS011;68448;51.188;6.868;2023-03-26T11:49:38;3.87;;;1.53;;
29954;SDS011;68448;51.188;6.868;2023-03-26T11:52:08;2.23;;;1.83;;
29954;SDS011;68448;51.188;6.868;2023-03-26T11:54:36;1.97;;;1.37;;
29954;SDS011;68448;51.188;6.868;2023-03-26T11:57:03;1.57;;;1.00;;
29954;SDS011;68448;51.188;6.868;2023-03-26T11:59:33;2.10;;;1.17;;
29954;SDS011;68448;51.188;6.868;2023-03-26T12:02:22;1.43;;;1.23;;
29954;SDS011;68448;51.188;6.868;2023-03-26T12:04:51;3.00;;;1.40;;
29954;SDS011;68448;51.188;6.868;2023-03-26T12:07:20;1.90;;;1.30;;
29954;SDS011;68448;51.188;6.868;2023-03-26T12:09:48;4.20;;;1.20;;
29954;SDS011;68448;51.188;6.868;2023-03-26T12:12:15;3.03;;;1.10;;
29954;SDS011;68448;51.188;6.868;2023-03-26T12:14:43;2.13;;;1.30;;
29954;SDS011;68448;51.188;6.868;2023-03-26T12:17:12;2.10;;;1.23;;
29954;SDS011;68448;51.188;6.868;2023-03-26T12:19:40;2.40;;;1.50;;
29954;SDS011;68448;51.188;6.868;2023-03-26T12:24:50;1.90;;;1.27;;
29954;SDS011;68448;51.188;6.868;2023-03-26T12:27:26;2.30;;;1.13;;
29954;SDS011;68448;51.188;6.868;2023-03-26T12:29:57;2.63;;;1.50;;
29954;SDS011;68448;51.188;6.868;2023-03-26T12:32:26;2.07;;;1.50;;
29954;SDS011;68448;51.188;6.868;2023-03-26T12:35:13;1.27;;;1.17;;
29954;SDS011;68448;51.188;6.868;2023-03-26T12:37:40;1.87;;;1.40;;
29954;SDS011;68448;51.188;6.868;2023-03-26T12:40:25;1.50;;;1.27;;
29954;SDS011;68448;51.188;6.868;2023-03-26T12:42:53;2.00;;;1.47;;
29954;SDS011;68448;51.188;6.868;2023-03-26T12:45:41;1.80;;;1.20;;
29954;SDS011;68448;51.188;6.868;2023-03-26T12:48:09;1.40;;;1.30;;
29954;SDS011;68448;51.188;6.868;2023-03-26T12:50:41;1.40;;;1.30;;
29954;SDS011;68448;51.188;6.868;2023-03-26T12:53:17;2.10;;;1.20;;
29954;SDS011;68448;51.188;6.868;2023-03-26T12:55:52;1.73;;;1.40;;
29954;SDS011;68448;51.188;6.868;2023-03-26T12:58:25;1.30;;;1.17;;
29954;SDS011;68448;51.188;6.868;2023-03-26T13:00:54;2.30;;;1.70;;
29954;SDS011;68448;51.188;6.868;2023-03-26T13:03:30;1.20;;;1.00;;
29954;SDS011;68448;51.188;6.868;2023-03-26T13:06:06;2.30;;;1.20;;
29954;SDS011;68448;51.188;6.868;2023-03-26T13:11:21;3.57;;;1.77;;
29954;SDS011;68448;51.188;6.868;2023-03-26T13:16:40;3.27;;;1.30;;
29954;SDS011;68448;51.188;6.868;2023-03-26T13:19:12;1.43;;;1.10;;
29954;SDS011;68448;51.188;6.868;2023-03-26T13:21:45;1.40;;;0.90;;
29954;SDS011;68448;51.188;6.868;2023-03-26T13:24:20;1.70;;;1.10;;
29954;SDS011;68448;51.188;6.868;2023-03-26T13:26:53;2.10;;;1.37;;
29954;SDS011;68448;51.188;6.868;2023-03-26T13:29:24;1.17;;;1.07;;
29954;SDS011;68448;51.188;6.868;2023-03-26T13:31:53;1.40;;;1.27;;
29954;SDS011;68448;51.188;6.868;2023-03-26T13:34:26;1.43;;;1.10;;
29954;SDS011;68448;51.188;6.868;2023-03-26T13:36:57;1.77;;;1.30;;
29954;SDS011;68448;51.188;6.868;2023-03-26T13:39:30;1.70;;;1.27;;
29954;SDS011;68448;51.188;6.868;2023-03-26T13:42:11;1.40;;;1.30;;
29954;SDS011;68448;51.188;6.868;2023-03-26T13:44:47;2.10;;;1.13;;
29954;SDS011;68448;51.188;6.868;2023-03-26T13:47:30;2.70;;;1.27;;
29954;SDS011;68448;51.188;6.868;2023-03-26T13:49:59;2.60;;;1.10;;
29954;SDS011;68448;51.188;6.868;2023-03-26T13:52:29;2.00;;;1.10;;
29954;SDS011;68448;51.188;6.868;2023-03-26T13:55:02;1.83;;;1.17;;
29954;SDS011;68448;51.188;6.868;2023-03-26T13:57:32;1.50;;;1.10;;
29954;SDS011;68448;51.188;6.868;2023-03-26T14:00:02;2.60;;;1.40;;
29954;SDS011;68448;51.188;6.868;2023-03-26T14:02:37;1.20;;;1.10;;
29954;SDS011;68448;51.188;6.868;2023-03-26T14:05:06;1.40;;;1.30;;
29954;SDS011;68448;51.188;6.868;2023-03-26T14:07:36;1.53;;;1.13;;
29954;SDS011;68448;51.188;6.868;2023-03-26T14:10:07;1.63;;;1.40;;
29954;SDS011;68448;51.188;6.868;2023-03-26T14:12:39;3.20;;;1.87;;
29954;SDS011;68448;51.188;6.868;2023-03-26T14:15:09;1.90;;;1.70;;
29954;SDS011;68448;51.188;6.868;2023-03-26T14:17:40;1.40;;;1.30;;
29954;SDS011;68448;51.188;6.868;2023-03-26T14:22:59;1.13;;;1.03;;
29954;SDS011;68448;51.188;6.868;2023-03-26T14:25:30;1.60;;;1.40;;
29954;SDS011;68448;51.188;6.868;2023-03-26T14:28:08;1.27;;;1.17;;
29954;SDS011;68448;51.188;6.868;2023-03-26T14:30:48;2.23;;;1.30;;
29954;SDS011;68448;51.188;6.868;2023-03-26T14:33:23;1.03;;;0.90;;
29954;SDS011;68448;51.188;6.868;2023-03-26T14:35:55;1.30;;;0.90;;
29954;SDS011;68448;51.188;6.868;2023-03-26T14:38:42;1.20;;;1.10;;
29954;SDS011;68448;51.188;6.868;2023-03-26T14:41:17;0.90;;;0.90;;
29954;SDS011;68448;51.188;6.868;2023-03-26T14:44:10;0.90;;;0.90;;
29954;SDS011;68448;51.188;6.868;2023-03-26T14:46:51;2.10;;;1.00;;
29954;SDS011;68448;51.188;6.868;2023-03-26T14:49:27;1.17;;;1.07;;
29954;SDS011;68448;51.188;6.868;2023-03-26T14:51:57;1.33;;;0.97;;
29954;SDS011;68448;51.188;6.868;2023-03-26T14:54:27;2.10;;;0.90;;
29954;SDS011;68448;51.188;6.868;2023-03-26T14:57:00;2.47;;;0.80;;
29954;SDS011;68448;51.188;6.868;2023-03-26T14:59:40;0.70;;;0.70;;
29954;SDS011;68448;51.188;6.868;2023-03-26T15:02:28;1.20;;;1.10;;
29954;SDS011;68448;51.188;6.868;2023-03-26T15:05:09;0.83;;;0.83;;
29954;SDS011;68448;51.188;6.868;2023-03-26T15:07:53;0.90;;;0.87;;
29954;SDS011;68448;51.188;6.868;2023-03-26T15:10:46;0.90;;;0.90;;
29954;SDS011;68448;51.188;6.868;2023-03-26T15:16:05;1.10;;;1.00;;
29954;SDS011;68448;51.188;6.868;2023-03-26T15:18:49;1.20;;;1.10;;
29954;SDS011;68448;51.188;6.868;2023-03-26T15:21:28;2.03;;;1.50;;
29954;SDS011;68448;51.188;6.868;2023-03-26T15:24:07;1.70;;;1.10;;
29954;SDS011;68448;51.188;6.868;2023-03-26T15:32:21;2.20;;;1.10;;
29954;SDS011;68448;51.188;6.868;2023-03-26T15:34:59;1.57;;;1.10;;
29954;SDS011;68448;51.188;6.868;2023-03-26T15:40:25;2.60;;;1.23;;
29954;SDS011;68448;51.188;6.868;2023-03-26T15:42:58;3.07;;;1.40;;
29954;SDS011;68448;51.188;6.868;2023-03-26T15:45:29;2.17;;;1.40;;
29954;SDS011;68448;51.188;6.868;2023-03-26T15:50:52;1.40;;;1.30;;
29954;SDS011;68448;51.188;6.868;2023-03-26T15:53:22;1.63;;;1.53;;
29954;SDS011;68448;51.188;6.868;2023-03-26T15:56:06;2.80;;;1.30;;
29954;SDS011;68448;51.188;6.868;2023-03-26T15:58:36;2.70;;;1.60;;
29954;SDS011;68448;51.188;6.868;2023-03-26T16:01:09;2.93;;;2.07;;
29954;SDS011;68448;51.188;6.868;2023-03-26T16:03:40;2.40;;;1.60;;
29954;SDS011;68448;51.188;6.868;2023-03-26T16:08:59;3.20;;;2.00;;
29954;SDS011;68448;51.188;6.868;2023-03-26T16:11:41;2.90;;;1.53;;
29954;SDS011;68448;51.188;6.868;2023-03-26T16:14:10;1.87;;;1.73;;
29954;SDS011;68448;51.188;6.868;2023-03-26T16:16:47;2.90;;;1.87;;
29954;SDS011;68448;51.188;6.868;2023-03-26T16:19:34;2.00;;;1.80;;
29954;SDS011;68448;51.188;6.868;2023-03-26T16:22:02;2.87;;;1.90;;